LESOLFRS

Guest
Details From LESO - San Sebastian
To LFRS - Nantes Atlantique
Flight Number -
Tags Generated
Created
Modified
Stats Distance 229 nm / 424 km
Max Altitude 0 ft / 0 m
Waypoints 3
Social Downloads 5
Likes 0
Share VATSIM

Download

Looking for another format? Having issues loading an existing format? Contact us
Advertisement - Login to hide

Notes

Generated

Route

LESO SUDIL LFRS

ID Type Via Altitude Latitude Longitude Leg Dist Tot Dist Heading (true) Name
O LESO APT - 0 ft / 0 m 43.35035˚ -1.79740˚ - 0 nm - -
SUDIL FIX - 0 ft / 0 m 47.13419˚ -1.62531˚ 227 nm 227 nm 2° / 2° -
O LFRS APT - 0 ft / 0 m 47.16048˚ -1.61493˚ 1 nm 228 nm 15° / 15° Nantes_Atlantique

Altitude Profile

Advertisement - Login to hide

Weather


0- 5 10 15 20 25 30 35+ Temperature / ° C

Clouds and Precipitation
Forecast for 2017-12-16 06:00 UTC. Updated 42 minutes ago

Ground ~20,000 ft ~40,000 ft Winds

LESO

Details ICAO LESO (EAS)
Name San_Sebastian
Region Spain
Timezone Europe/Madrid (UTC+1.0)
Stats Elevation 14 ft / 4 m (AMSL)
Location 43.356520° -1.790611°
Runways 1
Magnetic Variation 0.297° W

METAR

LESO 160600Z 02010KT 330V070 9999 SCT033 BKN050 10/06 Q1018

Decode

TAF

TAF LESO 160500Z 1606/1706 27008KT 9999 SCT030 BKN050 TX11/1614Z TN05/1706Z TEMPO 1606/1609 35010KT TEMPO 1606/1706 RA TEMPO 1606/1612 3000 SHRA SCT030TCU PROB40 TEMPO 1606/1612 TS SHGR SCT030CB

Decode

Departure Runways

ID Width Length Bearing (true) Bearing (mag) Surface Threshold Offset Overrun Length
04 148 ft / 45 m 5,762 ft / 1,756 m 38.68° 38.98° Asphalt 0 ft / 0 m 0 ft / 0 m
22 148 ft / 45 m 5,762 ft / 1,756 m 218.69° 218.99° Asphalt 0 ft / 0 m 0 ft / 0 m

LFRS

Details ICAO LFRS (NTE)
Name Nantes_Atlantique
Region France
Timezone Europe/Paris (UTC+1.0)
Stats Elevation 89 ft / 27 m (AMSL)
Location 47.156040° -1.611186°
Runways 2
Magnetic Variation 0.510° W

METAR

LFRS 160600Z AUTO VRB02KT 9999 FEW039 01/01 Q1017 NOSIG

Decode

TAF

TAF LFRS 160500Z 1606/1712 30005KT 9999 SCT040 TEMPO 1700/1712 4000 RA

Decode

Destination Runways

ID Width Length Bearing (true) Bearing (mag) Surface Threshold Offset Overrun Length
03 148 ft / 45 m 9,526 ft / 2,903 m 27.35° 27.86° Asphalt 0 ft / 0 m 0 ft / 0 m
13 100 ft / 30 m 1,999 ft / 609 m 125.55° 126.06° Concrete 0 ft / 0 m 0 ft / 0 m
21 148 ft / 45 m 9,526 ft / 2,903 m 207.37° 207.88° Asphalt 689 ft / 210 m 0 ft / 0 m
31 100 ft / 30 m 1,999 ft / 609 m 305.56° 306.07° Concrete 0 ft / 0 m 0 ft / 0 m

Approach Navaids

Runway Type Ident Frequency Range Bearing (true) Bearing (mag) Slope Elevation
03 Localiser NT 109.90 MHz 27 nm / 50 km 27.42° 27.93° - 89 ft / 27 m (AMSL)
03 Glidescope NT 109.90 MHz 27 nm / 50 km 27.42° 27.93° 3.00° 89 ft / 27 m (AMSL)
03 DME NT 109.90 MHz 27 nm / 50 km - - - 89 ft / 27 m (AMSL)